createdAt,value
2019-01-11T00:00:06.344Z,17.07
2019-01-11T00:02:36.701Z,17.50
2019-01-11T00:05:07.169Z,15.68
2019-01-11T00:07:37.413Z,17.85
2019-01-11T00:10:09.337Z,14.90
2019-01-11T00:12:45.023Z,18.35
2019-01-11T00:15:16.900Z,18.42
2019-01-11T00:17:47.555Z,17.62
2019-01-11T00:20:17.933Z,17.70
2019-01-11T00:22:48.352Z,16.43
2019-01-11T00:25:18.630Z,18.23
2019-01-11T00:27:48.883Z,15.55
2019-01-11T00:30:19.216Z,17.25
2019-01-11T00:32:49.502Z,15.70
2019-01-11T00:35:19.833Z,14.73
2019-01-11T00:37:50.359Z,16.50
2019-01-11T00:40:21.709Z,15.55
2019-01-11T00:42:52.001Z,15.70
2019-01-11T00:45:22.384Z,12.82
2019-01-11T00:47:52.656Z,15.50
2019-01-11T00:50:23.395Z,15.03
2019-01-11T00:52:53.819Z,20.40
2019-01-11T00:55:24.713Z,17.57
2019-01-11T00:57:54.979Z,17.15
2019-01-11T01:00:25.545Z,16.32
2019-01-11T01:02:55.830Z,16.12
2019-01-11T01:05:26.301Z,20.68
2019-01-11T01:07:57.670Z,18.95
2019-01-11T01:10:28.033Z,19.27
2019-01-11T01:12:58.326Z,18.60
2019-01-11T01:15:29.704Z,17.45
2019-01-11T01:18:00.004Z,20.57
2019-01-11T01:20:30.499Z,19.32
2019-01-11T01:23:00.829Z,18.25
2019-01-11T01:25:31.137Z,19.60
2019-01-11T01:28:01.550Z,21.52
2019-01-11T01:30:32.101Z,20.15
2019-01-11T01:33:02.603Z,21.42
2019-01-11T01:35:33.261Z,23.00
2019-01-11T01:38:03.565Z,16.95
2019-01-11T01:40:33.887Z,16.27
2019-01-11T01:43:04.723Z,21.57
2019-01-11T01:45:35.629Z,21.33
2019-01-11T01:48:05.960Z,18.02
2019-01-11T01:50:36.551Z,20.30
2019-01-11T01:53:06.926Z,25.25
2019-01-11T01:55:38.266Z,23.02
2019-01-11T01:58:08.559Z,22.05
2019-01-11T02:00:40.188Z,24.80
2019-01-11T02:03:10.481Z,22.05
2019-01-11T02:05:40.981Z,29.57
2019-01-11T02:08:11.348Z,31.65
2019-01-11T02:10:41.774Z,27.25
2019-01-11T02:13:12.550Z,34.53
2019-01-11T02:15:43.903Z,23.98
2019-01-11T02:18:14.286Z,23.45
2019-01-11T02:20:45.079Z,29.27
2019-01-11T02:23:15.376Z,29.92
2019-01-11T02:25:46.338Z,30.85
2019-01-11T02:28:17.082Z,66.35
2019-01-11T02:30:47.501Z,46.35
2019-01-11T02:33:24.898Z,32.55
2019-01-11T02:35:50.353Z,42.85
2019-01-11T02:38:20.724Z,52.70
2019-01-11T02:40:51.461Z,70.40
2019-01-11T02:43:21.778Z,49.50
2019-01-11T02:45:53.210Z,38.38
2019-01-11T02:48:23.649Z,36.83
2019-01-11T02:50:54.103Z,68.17
2019-01-11T02:53:24.785Z,67.15
2019-01-11T02:55:55.280Z,73.00
2019-01-11T02:58:25.554Z,61.30
2019-01-11T03:00:56.244Z,66.77
2019-01-11T03:03:26.706Z,58.78
2019-01-11T03:05:57.483Z,61.75
2019-01-11T03:08:27.707Z,39.67
2019-01-11T03:10:57.984Z,74.05
2019-01-11T03:13:28.333Z,48.40
2019-01-11T03:15:58.684Z,34.55
2019-01-11T03:18:29.487Z,80.57
2019-01-11T03:21:01.077Z,58.52
2019-01-11T03:23:32.343Z,53.10
2019-01-11T03:26:02.614Z,75.85
2019-01-11T03:28:32.882Z,105.58
2019-01-11T03:31:11.453Z,72.80
2019-01-11T03:33:41.994Z,76.95
2019-01-11T03:36:12.216Z,55.45
2019-01-11T03:38:42.445Z,60.98
2019-01-11T03:41:12.668Z,66.55
2019-01-11T03:43:43.045Z,56.00
2019-01-11T03:46:13.540Z,106.00
2019-01-11T03:48:43.815Z,57.27
2019-01-11T03:51:14.102Z,64.40
2019-01-11T03:53:44.493Z,52.33
2019-01-11T03:56:14.732Z,68.42
2019-01-11T03:58:45.513Z,35.40
2019-01-11T04:01:15.815Z,38.50
2019-01-11T04:03:46.077Z,44.00
2019-01-11T04:06:16.373Z,41.45
2019-01-11T04:08:46.636Z,40.60
2019-01-11T04:11:16.851Z,45.45
2019-01-11T04:13:47.347Z,39.23
2019-01-11T04:16:19.308Z,43.80
2019-01-11T04:18:56.533Z,46.50
2019-01-11T04:21:26.924Z,36.03
2019-01-11T04:23:57.149Z,36.80
2019-01-11T04:26:27.345Z,55.73
2019-01-11T04:28:58.654Z,43.15
2019-01-11T04:31:29.875Z,45.45
2019-01-11T04:34:00.186Z,39.15
2019-01-11T04:36:30.553Z,31.37
2019-01-11T04:39:06.140Z,38.55
2019-01-11T04:41:36.850Z,29.02
2019-01-11T04:44:08.683Z,42.75
2019-01-11T04:46:38.855Z,37.48
2019-01-11T04:49:09.253Z,52.75
2019-01-11T04:51:39.775Z,37.70
2019-01-11T04:54:10.067Z,36.47
2019-01-11T04:56:40.840Z,43.92
2019-01-11T04:59:11.103Z,51.02
2019-01-11T05:01:42.103Z,64.67
2019-01-11T05:04:12.451Z,54.15
2019-01-11T05:06:42.691Z,56.68
2019-01-11T05:09:13.174Z,33.53
2019-01-11T05:11:43.838Z,42.80
2019-01-11T05:14:14.073Z,40.60
2019-01-11T05:16:47.546Z,48.83
2019-01-11T05:19:17.793Z,56.68
2019-01-11T05:21:48.081Z,44.53
2019-01-11T05:24:18.297Z,48.00
2019-01-11T05:26:48.994Z,42.23
2019-01-11T05:29:19.340Z,59.25
2019-01-11T05:31:49.642Z,54.15
2019-01-11T05:34:19.967Z,48.17
2019-01-11T05:36:50.327Z,48.78
2019-01-11T05:39:20.804Z,39.88
2019-01-11T05:41:51.147Z,38.42
2019-01-11T05:44:21.333Z,49.48
2019-01-11T05:46:52.795Z,51.60
2019-01-11T05:49:23.872Z,54.20
2019-01-11T05:51:55.390Z,53.23
2019-01-11T05:54:26.180Z,52.45
2019-01-11T05:56:56.425Z,40.08
2019-01-11T05:59:28.287Z,58.68
2019-01-11T06:01:58.720Z,38.58
2019-01-11T06:04:43.408Z,64.55
2019-01-11T06:07:25.473Z,54.45
2019-01-11T06:09:55.718Z,56.23
2019-01-11T06:12:25.944Z,43.75
2019-01-11T06:14:56.262Z,75.57
2019-01-11T06:17:26.544Z,53.35
2019-01-11T06:19:56.818Z,63.65
2019-01-11T06:22:27.165Z,60.40
2019-01-11T06:24:58.959Z,64.87
2019-01-11T06:27:30.547Z,54.40
2019-01-11T06:30:00.911Z,64.82
2019-01-11T06:32:31.258Z,53.35
2019-01-11T06:35:01.666Z,65.55
2019-01-11T06:37:31.993Z,62.62
2019-01-11T06:40:02.599Z,29.95
2019-01-11T06:42:34.916Z,60.78
2019-01-11T06:45:06.655Z,46.33
2019-01-11T06:47:37.356Z,38.20
2019-01-11T06:50:11.558Z,41.68
2019-01-11T06:52:41.800Z,34.83
2019-01-11T06:55:12.429Z,53.78
2019-01-11T06:57:42.776Z,44.45
2019-01-11T07:00:14.637Z,51.37
2019-01-11T07:02:45.292Z,39.38
2019-01-11T07:05:15.549Z,45.83
2019-01-11T07:07:46.998Z,56.08
2019-01-11T07:10:18.961Z,51.92
2019-01-11T07:12:49.302Z,33.40
2019-01-11T07:15:19.924Z,51.15
2019-01-11T07:17:50.145Z,38.40
2019-01-11T07:20:20.691Z,34.07
2019-01-11T07:22:51.254Z,35.55
2019-01-11T07:25:21.784Z,36.73
2019-01-11T07:27:59.457Z,30.92
2019-01-11T07:30:40.844Z,36.80
2019-01-11T07:33:15.161Z,30.45
2019-01-11T07:35:51.528Z,36.45
2019-01-11T07:38:22.590Z,27.70
2019-01-11T07:40:52.897Z,33.02
2019-01-11T07:43:23.424Z,35.15
2019-01-11T07:45:54.492Z,30.37
2019-01-11T07:48:25.803Z,26.55
2019-01-11T07:50:56.167Z,23.22
2019-01-11T07:53:26.710Z,32.50
2019-01-11T07:55:57.017Z,37.38
2019-01-11T07:58:27.895Z,37.45
2019-01-11T08:00:58.594Z,40.08
2019-01-11T08:03:29.302Z,40.95
2019-01-11T08:06:00.721Z,47.58
2019-01-11T08:08:30.968Z,29.90
2019-01-11T08:11:02.402Z,35.23
2019-01-11T08:13:33.018Z,31.17
2019-01-11T08:16:04.617Z,47.70
2019-01-11T08:18:37.275Z,36.40
2019-01-11T08:21:07.928Z,20.45
2019-01-11T08:23:40.394Z,45.03
2019-01-11T08:26:10.855Z,53.30
2019-01-11T08:28:41.183Z,22.05
2019-01-11T08:31:12.560Z,30.88
2019-01-11T08:33:42.898Z,40.15
2019-01-11T08:36:13.161Z,27.35
2019-01-11T08:38:43.443Z,20.08
2019-01-11T08:41:14.055Z,26.17
2019-01-11T08:43:44.613Z,30.70
2019-01-11T08:46:14.885Z,24.15
2019-01-11T08:48:45.150Z,35.08
2019-01-11T08:51:17.423Z,33.55
2019-01-11T08:53:47.992Z,21.27
2019-01-11T08:56:18.310Z,20.90
2019-01-11T08:58:49.044Z,23.02
2019-01-11T09:01:21.671Z,10.90
2019-01-11T09:03:52.320Z,20.43
2019-01-11T09:06:31.350Z,14.07
2019-01-11T09:09:02.004Z,14.00
2019-01-11T09:11:32.270Z,15.05
2019-01-11T09:14:03.782Z,15.18
2019-01-11T09:16:35.039Z,10.70
2019-01-11T09:19:07.443Z,23.45
2019-01-11T09:21:41.573Z,20.12
2019-01-11T09:24:10.216Z,7.03
2019-01-11T09:26:40.666Z,10.53
2019-01-11T09:29:11.067Z,13.08
2019-01-11T09:31:42.336Z,13.35
2019-01-11T09:34:18.782Z,7.65
2019-01-11T09:36:49.073Z,8.78
2019-01-11T09:39:19.618Z,14.38
2019-01-11T09:41:51.966Z,9.33
2019-01-11T09:44:22.222Z,9.83
2019-01-11T09:46:52.543Z,7.20
2019-01-11T09:49:23.459Z,8.33
2019-01-11T09:51:54.921Z,11.83
2019-01-11T09:54:25.644Z,11.25
2019-01-11T09:56:56.642Z,7.53
2019-01-11T09:59:27.042Z,12.98
2019-01-11T10:02:22.504Z,5.45
2019-01-11T10:04:54.079Z,10.23
2019-01-11T10:07:29.341Z,5.12
2019-01-11T10:09:59.558Z,5.28
2019-01-11T10:12:29.972Z,7.33
2019-01-11T10:15:00.482Z,11.50
2019-01-11T10:17:30.870Z,7.15
2019-01-11T10:20:01.346Z,7.00
2019-01-11T10:22:31.696Z,5.03
2019-01-11T10:25:01.938Z,4.28
2019-01-11T10:27:32.171Z,4.60
2019-01-11T10:30:15.909Z,6.03
2019-01-11T10:32:46.625Z,8.83
2019-01-11T10:35:17.568Z,14.23
2019-01-11T10:37:48.758Z,6.45
2019-01-11T10:40:19.211Z,6.62
2019-01-11T10:42:49.758Z,10.20
2019-01-11T10:45:22.824Z,10.35
2019-01-11T10:47:53.979Z,13.28
2019-01-11T10:50:24.322Z,10.70
2019-01-11T10:52:56.530Z,7.55
2019-01-11T10:55:26.876Z,12.85
2019-01-11T10:57:57.122Z,8.78
2019-01-11T11:00:28.505Z,7.37
2019-01-11T11:02:59.310Z,9.33
2019-01-11T11:05:30.082Z,9.05
2019-01-11T11:08:00.566Z,17.80
2019-01-11T11:10:31.301Z,11.65
2019-01-11T11:13:01.667Z,13.85
2019-01-11T11:15:32.430Z,4.67
2019-01-11T11:18:02.779Z,12.55
2019-01-11T11:20:33.335Z,9.40
2019-01-11T11:23:03.689Z,10.98
2019-01-11T11:25:34.078Z,5.22
2019-01-11T11:28:04.586Z,11.18
2019-01-11T11:30:35.399Z,10.68
2019-01-11T11:33:06.238Z,4.35
2019-01-11T11:35:37.046Z,4.12
2019-01-11T11:38:07.642Z,8.10
2019-01-11T11:40:38.104Z,4.03
2019-01-11T11:43:08.639Z,4.75
2019-01-11T11:45:39.004Z,10.13
2019-01-11T11:48:09.519Z,10.30
2019-01-11T11:50:40.294Z,11.22
2019-01-11T11:53:10.741Z,22.60
2019-01-11T11:55:42.360Z,13.58
2019-01-11T11:58:12.864Z,13.83
2019-01-11T12:00:43.573Z,14.38
2019-01-11T12:03:13.850Z,8.63
2019-01-11T12:05:44.193Z,11.73
2019-01-11T12:08:14.910Z,17.40
2019-01-11T12:10:45.529Z,10.03
2019-01-11T12:13:15.836Z,16.93
2019-01-11T12:15:46.132Z,10.60
2019-01-11T12:18:17.409Z,20.12
2019-01-11T12:20:47.841Z,23.92
2019-01-11T12:23:19.575Z,27.95
2019-01-11T12:25:50.127Z,18.90
2019-01-11T12:28:20.719Z,11.73
2019-01-11T12:30:52.438Z,29.25
2019-01-11T12:33:23.028Z,21.57
2019-01-11T12:35:53.431Z,16.37
2019-01-11T12:38:25.149Z,25.62
2019-01-11T12:40:55.655Z,14.07
2019-01-11T12:43:27.105Z,28.42
2019-01-11T12:45:58.046Z,23.30
2019-01-11T12:48:28.323Z,15.18
2019-01-11T12:50:58.828Z,25.08
2019-01-11T12:53:29.682Z,35.90
2019-01-11T12:56:01.165Z,24.52
2019-01-11T12:58:32.794Z,24.15
2019-01-11T13:01:03.288Z,20.97
2019-01-11T13:03:34.133Z,19.52
2019-01-11T13:06:04.442Z,20.80
2019-01-11T13:08:35.129Z,22.70
2019-01-11T13:11:05.540Z,30.23
2019-01-11T13:13:36.522Z,27.75
2019-01-11T13:16:08.154Z,34.40
2019-01-11T13:18:38.501Z,23.18
2019-01-11T13:21:10.792Z,31.57
2019-01-11T13:23:42.449Z,33.28
2019-01-11T13:26:13.450Z,32.17
2019-01-11T13:28:44.105Z,38.73
2019-01-11T13:31:16.600Z,28.70
2019-01-11T13:33:46.975Z,24.37
2019-01-11T13:36:20.065Z,23.20
2019-01-11T13:38:50.597Z,22.13
2019-01-11T13:41:22.165Z,36.05
2019-01-11T13:43:52.585Z,21.57
2019-01-11T13:46:24.135Z,23.25
2019-01-11T13:48:54.869Z,40.90
2019-01-11T13:51:25.438Z,34.90
2019-01-11T13:53:55.876Z,36.57
2019-01-11T13:56:26.476Z,33.05
2019-01-11T13:58:57.803Z,47.97
2019-01-11T14:01:28.589Z,35.45
2019-01-11T14:04:00.531Z,30.52
2019-01-11T14:06:31.676Z,30.12
2019-01-11T14:09:02.125Z,40.73
2019-01-11T14:11:33.691Z,30.40
2019-01-11T14:14:04.080Z,28.25
2019-01-11T14:16:35.152Z,25.88
2019-01-11T14:19:06.585Z,54.00
2019-01-11T14:21:38.073Z,30.62
2019-01-11T14:24:10.497Z,52.08
2019-01-11T14:26:40.747Z,41.18
2019-01-11T14:29:11.203Z,39.42
2019-01-11T14:31:42.827Z,48.98
2019-01-11T14:34:14.353Z,31.20
2019-01-11T14:36:44.607Z,48.03
2019-01-11T14:39:15.104Z,58.13
2019-01-11T14:41:45.834Z,37.13
2019-01-11T14:44:17.732Z,33.42
2019-01-11T14:46:49.405Z,28.40
2019-01-11T14:49:20.162Z,41.18
2019-01-11T14:51:50.819Z,59.50
2019-01-11T14:54:21.790Z,39.55
2019-01-11T14:57:01.167Z,32.40
2019-01-11T14:59:31.445Z,34.88
2019-01-11T15:02:01.848Z,45.78
2019-01-11T15:04:32.553Z,45.60
2019-01-11T15:07:08.523Z,48.05
2019-01-11T15:09:42.498Z,41.23
2019-01-11T15:12:13.177Z,44.53
2019-01-11T15:14:45.356Z,44.13
2019-01-11T15:17:15.972Z,46.33
2019-01-11T15:19:48.563Z,46.23
2019-01-11T15:22:26.426Z,46.42
2019-01-11T15:24:53.777Z,43.98
2019-01-11T15:27:27.026Z,61.18
2019-01-11T15:29:57.728Z,52.98
2019-01-11T15:32:30.746Z,43.13
2019-01-11T15:35:03.520Z,48.73
2019-01-11T15:37:51.598Z,58.05
2019-01-11T15:40:36.951Z,60.17
2019-01-11T15:43:10.396Z,57.38
2019-01-11T15:45:45.493Z,37.17
2019-01-11T15:48:20.397Z,43.30
2019-01-11T15:50:58.202Z,38.63
2019-01-11T15:53:38.934Z,46.80
2019-01-11T15:56:11.143Z,46.25
2019-01-11T15:58:43.168Z,54.65
2019-01-11T16:01:13.834Z,61.75
2019-01-11T16:03:44.236Z,50.08
2019-01-11T16:06:37.124Z,51.00
2019-01-11T16:09:27.306Z,69.20
2019-01-11T16:12:10.025Z,36.93
2019-01-11T16:15:32.063Z,38.67
2019-01-11T16:18:08.486Z,55.58
2019-01-11T16:20:40.227Z,49.85
2019-01-11T16:23:11.064Z,66.67
2019-01-11T16:25:41.439Z,65.10
2019-01-11T16:28:12.003Z,47.73
2019-01-11T16:30:43.267Z,53.70
2019-01-11T16:33:13.919Z,63.52
2019-01-11T16:35:44.550Z,82.67
2019-01-11T16:38:16.106Z,45.70
2019-01-11T16:40:46.579Z,80.25
2019-01-11T16:43:19.309Z,41.20
2019-01-11T16:45:49.843Z,61.25
2019-01-11T16:48:21.836Z,61.45
2019-01-11T16:50:56.494Z,50.43
2019-01-11T16:53:27.231Z,63.68
2019-01-11T16:55:58.732Z,46.55
2019-01-11T16:58:30.021Z,69.90
2019-01-11T17:01:00.919Z,79.15
2019-01-11T17:03:33.524Z,61.10
2019-01-11T17:06:04.264Z,59.50
2019-01-11T17:08:37.796Z,59.98
2019-01-11T17:11:08.250Z,49.80
2019-01-11T17:13:40.734Z,68.57
2019-01-11T17:16:10.988Z,56.83
2019-01-11T17:18:41.269Z,49.13
2019-01-11T17:21:11.857Z,43.80
2019-01-11T17:23:43.167Z,59.30
2019-01-11T17:26:13.634Z,57.95
2019-01-11T17:28:44.647Z,74.87
2019-01-11T17:31:15.207Z,65.97
2019-01-11T17:33:46.695Z,51.73
2019-01-11T17:36:16.961Z,58.95
2019-01-11T17:38:47.337Z,64.72
2019-01-11T17:41:18.143Z,63.35
2019-01-11T17:43:48.670Z,60.48
2019-01-11T17:46:19.361Z,57.10
2019-01-11T17:48:50.101Z,81.92
2019-01-11T17:51:20.879Z,67.47
2019-01-11T17:53:52.514Z,60.50
2019-01-11T17:56:24.765Z,54.50
2019-01-11T17:58:56.519Z,59.58
2019-01-11T18:01:26.851Z,61.80
2019-01-11T18:03:57.749Z,64.45
2019-01-11T18:06:28.550Z,63.38
2019-01-11T18:08:59.222Z,82.20
2019-01-11T18:11:30.121Z,73.75
2019-01-11T18:14:00.761Z,79.42
2019-01-11T18:16:31.265Z,71.30
2019-01-11T18:19:01.867Z,62.67
2019-01-11T18:21:32.502Z,80.38
2019-01-11T18:24:02.824Z,63.52
2019-01-11T18:26:33.235Z,87.05
2019-01-11T18:29:03.729Z,68.78
2019-01-11T18:31:35.257Z,63.20
2019-01-11T18:34:05.582Z,64.30
2019-01-11T18:36:35.802Z,53.75
2019-01-11T18:39:08.582Z,75.28
2019-01-11T18:41:39.418Z,52.73
2019-01-11T18:44:09.744Z,80.42
2019-01-11T18:46:40.004Z,60.28
2019-01-11T18:49:10.381Z,71.20
2019-01-11T18:51:40.756Z,66.22
2019-01-11T18:54:11.015Z,58.70
2019-01-11T18:56:41.404Z,65.60
2019-01-11T18:59:11.938Z,53.35
2019-01-11T19:01:42.389Z,62.65
2019-01-11T19:04:13.787Z,69.27
2019-01-11T19:06:44.185Z,64.12
2019-01-11T19:09:15.470Z,53.02
2019-01-11T19:11:46.120Z,37.58
2019-01-11T19:14:17.366Z,65.83
2019-01-11T19:16:48.156Z,45.63
2019-01-11T19:19:18.845Z,62.80
2019-01-11T19:21:59.437Z,60.00
2019-01-11T19:24:34.280Z,51.02
2019-01-11T19:27:06.349Z,68.95
2019-01-11T19:29:36.778Z,72.62
2019-01-11T19:32:17.545Z,51.88
2019-01-11T19:34:55.861Z,57.30
2019-01-11T19:37:27.697Z,52.30
2019-01-11T19:39:58.022Z,49.77
2019-01-11T19:42:28.607Z,53.05
2019-01-11T19:44:59.332Z,70.42
2019-01-11T19:47:30.277Z,64.20
2019-01-11T19:50:01.234Z,61.75
2019-01-11T19:52:31.602Z,46.55
2019-01-11T19:55:03.016Z,82.27
2019-01-11T19:57:33.340Z,53.40
2019-01-11T20:00:04.286Z,60.25
2019-01-11T20:02:34.565Z,67.20
2019-01-11T20:05:06.180Z,57.13
2019-01-11T20:07:36.484Z,46.95
2019-01-11T20:10:11.883Z,55.30
2019-01-11T20:12:42.379Z,49.17
2019-01-11T20:15:12.876Z,55.40
2019-01-11T20:17:43.233Z,48.97
2019-01-11T20:20:14.423Z,55.65
2019-01-11T20:22:45.155Z,47.83
2019-01-11T20:25:22.182Z,51.28
2019-01-11T20:27:52.666Z,66.40
2019-01-11T20:30:25.301Z,55.10
2019-01-11T20:32:55.734Z,49.08
2019-01-11T20:35:26.444Z,53.30
2019-01-11T20:37:57.475Z,52.75
2019-01-11T20:40:28.177Z,45.67
2019-01-11T20:42:58.421Z,54.38
2019-01-11T20:45:29.023Z,51.10
2019-01-11T20:47:59.985Z,77.25
2019-01-11T20:50:30.739Z,48.55
2019-01-11T20:53:01.155Z,60.15
2019-01-11T20:55:33.065Z,54.90
2019-01-11T20:58:03.328Z,56.02
2019-01-11T21:00:35.205Z,50.50
2019-01-11T21:03:07.886Z,65.80
2019-01-11T21:05:38.476Z,59.55
2019-01-11T21:08:10.696Z,43.85
2019-01-11T21:10:41.330Z,53.60
2019-01-11T21:13:12.164Z,52.43
2019-01-11T21:15:43.399Z,56.05
2019-01-11T21:18:13.778Z,49.40
2019-01-11T21:20:44.211Z,54.58
2019-01-11T21:23:15.705Z,39.70
2019-01-11T21:25:46.010Z,34.08
2019-01-11T21:28:16.439Z,52.50
2019-01-11T21:30:46.886Z,61.25
2019-01-11T21:33:17.461Z,48.40
2019-01-11T21:35:47.846Z,45.25
2019-01-11T21:38:18.154Z,71.82
2019-01-11T21:40:48.481Z,56.92
2019-01-11T21:43:18.612Z,52.95
2019-01-11T21:45:49.620Z,44.48
2019-01-11T21:48:21.127Z,42.70
2019-01-11T21:50:55.685Z,53.75
2019-01-11T21:53:25.995Z,38.53
2019-01-11T21:55:57.097Z,41.23
2019-01-11T21:58:27.504Z,39.08
2019-01-11T22:00:58.378Z,35.70
2019-01-11T22:03:29.196Z,54.03
2019-01-11T22:05:59.638Z,66.65
2019-01-11T22:08:30.105Z,52.67
2019-01-11T22:11:00.557Z,41.75
2019-01-11T22:13:30.909Z,57.58
2019-01-11T22:16:01.533Z,34.25
2019-01-11T22:18:31.975Z,53.63
2019-01-11T22:21:02.187Z,65.60
2019-01-11T22:23:32.511Z,42.08
2019-01-11T22:26:03.338Z,81.20
2019-01-11T22:28:34.114Z,59.85
2019-01-11T22:31:04.985Z,54.25
2019-01-11T22:33:35.224Z,52.78
2019-01-11T22:36:06.318Z,56.63
2019-01-11T22:38:37.365Z,60.20
2019-01-11T22:41:07.615Z,60.17
2019-01-11T22:43:37.868Z,59.98
2019-01-11T22:46:08.177Z,43.10
2019-01-11T22:48:38.379Z,58.73
2019-01-11T22:51:08.724Z,75.70
2019-01-11T22:53:39.042Z,41.28
2019-01-11T22:56:09.564Z,45.10
2019-01-11T22:58:39.809Z,54.03
2019-01-11T23:01:30.167Z,67.53
2019-01-11T23:04:01.552Z,42.60
2019-01-11T23:06:59.890Z,49.18
2019-01-11T23:09:51.751Z,72.95
2019-01-11T23:12:47.810Z,47.65
2019-01-11T23:15:22.939Z,71.20
2019-01-11T23:18:00.078Z,67.60
2019-01-11T23:20:31.790Z,48.45
2019-01-11T23:23:02.373Z,34.18
2019-01-11T23:25:32.669Z,52.45
2019-01-11T23:28:03.017Z,50.45
2019-01-11T23:30:33.350Z,49.25
2019-01-11T23:33:03.691Z,64.15
2019-01-11T23:35:33.961Z,61.00
2019-01-11T23:38:04.440Z,38.15
2019-01-11T23:40:35.088Z,66.00
2019-01-11T23:43:05.488Z,61.55
2019-01-11T23:45:36.684Z,63.10
2019-01-11T23:48:06.974Z,35.63
2019-01-11T23:50:37.346Z,57.80
2019-01-11T23:53:07.892Z,54.38
2019-01-11T23:55:38.740Z,64.00
2019-01-11T23:58:09.603Z,65.47
